createdAt,value
2017-08-25T00:00:40.294Z,68.15
2017-08-25T00:05:42.792Z,68.05
2017-08-25T00:10:45.119Z,67.99
2017-08-25T00:15:47.288Z,68.29
2017-08-25T00:20:49.537Z,68.11
2017-08-25T00:25:51.831Z,68.14
2017-08-25T00:30:54.133Z,68.07
2017-08-25T00:35:56.427Z,68.48
2017-08-25T00:40:58.848Z,68.40
2017-08-25T00:46:01.194Z,68.18
2017-08-25T00:51:03.472Z,68.19
2017-08-25T00:56:07.556Z,68.38
2017-08-25T01:01:09.914Z,68.50
2017-08-25T01:06:12.251Z,68.51
2017-08-25T01:11:14.569Z,68.32
2017-08-25T01:16:16.861Z,67.94
2017-08-25T01:21:19.350Z,67.45
2017-08-25T01:26:21.879Z,67.39
2017-08-25T01:31:24.178Z,67.16
2017-08-25T01:36:26.582Z,67.53
2017-08-25T01:41:29.185Z,67.87
2017-08-25T01:46:31.800Z,68.29
2017-08-25T01:51:34.367Z,68.56
2017-08-25T01:56:37.044Z,68.52
2017-08-25T02:01:39.371Z,68.87
2017-08-25T02:06:41.702Z,68.73
2017-08-25T02:11:44.106Z,69.10
2017-08-25T02:21:55.175Z,68.99
2017-08-25T02:26:57.559Z,68.98
2017-08-25T02:31:59.885Z,68.95
2017-08-25T02:37:02.203Z,69.04
2017-08-25T02:42:04.484Z,69.04
2017-08-25T02:47:06.835Z,69.08
2017-08-25T02:52:09.364Z,69.07
2017-08-25T02:57:12.349Z,69.24
2017-08-25T03:02:15.698Z,69.16
2017-08-25T03:07:18.015Z,69.22
2017-08-25T03:12:20.462Z,69.05
2017-08-25T03:17:26.776Z,69.19
2017-08-25T03:22:29.147Z,69.20
2017-08-25T03:27:34.770Z,69.24
2017-08-25T03:32:41.136Z,69.59
2017-08-25T03:37:48.356Z,69.73
2017-08-25T03:42:55.181Z,69.55
2017-08-25T03:48:02.236Z,69.57
2017-08-25T03:53:09.379Z,69.66
2017-08-25T03:58:15.835Z,69.64
2017-08-25T04:03:23.444Z,69.72
2017-08-25T04:08:29.847Z,69.87
2017-08-25T04:13:36.125Z,70.27
2017-08-25T04:18:46.166Z,69.79
2017-08-25T04:23:53.301Z,69.83
2017-08-25T04:28:58.853Z,69.90
2017-08-25T04:34:06.997Z,69.86
2017-08-25T04:39:09.543Z,70.32
2017-08-25T04:44:11.993Z,70.40
2017-08-25T04:49:14.475Z,70.15
2017-08-25T04:54:16.754Z,69.65
2017-08-25T04:59:19.025Z,69.44
2017-08-25T05:04:21.442Z,69.00
2017-08-25T05:09:23.586Z,69.10
2017-08-25T05:14:25.941Z,69.12
2017-08-25T05:19:28.363Z,68.81
2017-08-25T05:24:30.668Z,68.55
2017-08-25T05:29:33.097Z,68.35
2017-08-25T05:34:35.517Z,68.17
2017-08-25T05:39:37.730Z,68.23
2017-08-25T05:44:39.964Z,67.83
2017-08-25T05:49:42.217Z,67.47
2017-08-25T05:54:44.403Z,67.10
2017-08-25T05:59:46.720Z,66.78
2017-08-25T06:04:49.104Z,66.72
2017-08-25T06:09:51.378Z,65.99
2017-08-25T06:14:53.506Z,65.27
2017-08-25T06:19:55.860Z,64.84
2017-08-25T06:24:58.325Z,64.31
2017-08-25T06:30:00.536Z,63.75
2017-08-25T06:35:02.770Z,63.39
2017-08-25T06:40:04.981Z,62.71
2017-08-25T06:45:07.181Z,61.46
2017-08-25T06:50:09.623Z,61.13
2017-08-25T06:55:11.954Z,60.61
2017-08-25T07:00:14.273Z,60.57
2017-08-25T07:05:16.557Z,60.07
2017-08-25T07:10:18.482Z,59.60
2017-08-25T07:15:20.913Z,59.39
2017-08-25T07:20:23.131Z,59.60
2017-08-25T07:25:25.304Z,59.63
2017-08-25T07:30:27.508Z,59.68
2017-08-25T07:35:29.793Z,59.32
2017-08-25T07:40:32.028Z,57.60
2017-08-25T07:45:34.309Z,56.66
2017-08-25T07:50:37.384Z,56.12
2017-08-25T07:55:39.584Z,56.10
2017-08-25T08:00:41.774Z,55.27
2017-08-25T08:05:44.178Z,54.33
2017-08-25T08:10:46.557Z,55.56
2017-08-25T08:15:48.987Z,54.63
2017-08-25T08:20:51.332Z,54.57
2017-08-25T08:25:53.784Z,55.28
2017-08-25T08:30:55.992Z,54.75
2017-08-25T08:35:58.395Z,54.49
2017-08-25T08:41:00.628Z,52.86
2017-08-25T08:46:02.927Z,52.90
2017-08-25T08:51:05.188Z,52.34
2017-08-25T08:56:07.580Z,51.11
2017-08-25T09:01:09.880Z,50.79
2017-08-25T09:06:18.291Z,49.64
2017-08-25T09:11:20.549Z,49.54
2017-08-25T09:16:23.182Z,49.63
2017-08-25T09:21:25.495Z,48.23
2017-08-25T09:26:27.725Z,47.12
2017-08-25T09:31:30.003Z,45.91
2017-08-25T09:36:32.456Z,45.98
2017-08-25T09:41:34.829Z,45.80
2017-08-25T09:46:37.152Z,45.24
2017-08-25T09:51:40.649Z,43.21
2017-08-25T09:56:42.915Z,43.95
2017-08-25T10:01:45.189Z,42.01
2017-08-25T10:06:47.480Z,42.45
2017-08-25T10:11:49.881Z,41.57
2017-08-25T10:16:52.295Z,42.34
2017-08-25T10:21:54.832Z,42.04
2017-08-25T10:26:57.304Z,40.72
2017-08-25T10:32:01.457Z,40.70
2017-08-25T10:37:21.936Z,41.40
2017-08-25T10:42:42.628Z,40.83
2017-08-25T10:47:44.922Z,40.95
2017-08-25T10:52:47.215Z,40.10
2017-08-25T10:57:49.511Z,39.98
2017-08-25T11:02:53.006Z,38.97
2017-08-25T11:07:55.463Z,38.81
2017-08-25T11:12:59.030Z,38.28
2017-08-25T11:18:02.318Z,38.46
2017-08-25T11:23:04.695Z,38.62
2017-08-25T11:28:07.033Z,36.66
2017-08-25T11:33:10.703Z,36.66
2017-08-25T11:38:12.904Z,36.73
2017-08-25T11:43:15.081Z,37.15
2017-08-25T11:48:17.236Z,37.68
2017-08-25T11:53:19.531Z,37.97
2017-08-25T11:58:21.694Z,38.33
2017-08-25T12:03:23.977Z,37.47
2017-08-25T12:08:26.297Z,37.35
2017-08-25T12:13:28.515Z,37.76
2017-08-25T12:18:30.900Z,38.00
2017-08-25T12:23:33.310Z,36.81
2017-08-25T12:28:36.098Z,33.79
2017-08-25T12:33:38.946Z,34.84
2017-08-25T12:38:41.291Z,33.87
2017-08-25T12:43:43.587Z,34.38
2017-08-25T12:48:46.660Z,34.00
2017-08-25T12:53:48.927Z,35.42
2017-08-25T12:58:51.204Z,36.12
2017-08-25T13:03:53.520Z,37.19
2017-08-25T13:08:55.754Z,35.22
2017-08-25T13:13:58.021Z,35.89
2017-08-25T13:19:00.215Z,35.15
2017-08-25T13:24:02.386Z,35.91
2017-08-25T13:29:04.740Z,34.85
2017-08-25T13:34:07.133Z,33.85
2017-08-25T13:39:09.460Z,34.23
2017-08-25T13:44:11.741Z,35.35
2017-08-25T13:49:14.140Z,35.47
2017-08-25T13:54:16.073Z,34.96
2017-08-25T13:59:18.001Z,33.66
2017-08-25T14:04:20.040Z,33.25
2017-08-25T14:09:22.257Z,34.09
2017-08-25T14:14:24.170Z,33.80
2017-08-25T14:19:26.086Z,34.95
2017-08-25T14:24:28.103Z,34.52
2017-08-25T14:29:30.028Z,34.31
2017-08-25T14:34:31.982Z,33.56
2017-08-25T14:39:33.936Z,32.93
2017-08-25T14:44:36.271Z,32.71
2017-08-25T14:49:39.492Z,32.26
2017-08-25T14:54:42.844Z,32.02
2017-08-25T14:59:46.247Z,32.93
2017-08-25T15:04:49.392Z,32.99
2017-08-25T15:09:51.792Z,32.12
2017-08-25T15:14:54.621Z,32.32
2017-08-25T15:19:57.107Z,32.06
2017-08-25T15:24:59.377Z,33.17
2017-08-25T15:30:01.714Z,33.79
2017-08-25T15:35:04.254Z,33.59
2017-08-25T15:40:06.549Z,32.67
2017-08-25T15:45:08.910Z,33.19
2017-08-25T15:50:11.240Z,33.77
2017-08-25T15:55:13.394Z,33.57
2017-08-25T16:00:15.607Z,35.79
2017-08-25T16:05:17.943Z,36.62
2017-08-25T16:10:20.222Z,37.48
2017-08-25T16:15:22.489Z,39.62
2017-08-25T16:20:24.821Z,40.27
2017-08-25T16:25:27.210Z,40.51
2017-08-25T16:30:29.405Z,41.11
2017-08-25T16:35:31.664Z,42.24
2017-08-25T16:40:34.020Z,42.39
2017-08-25T16:45:36.303Z,42.15
2017-08-25T16:50:38.434Z,42.51
2017-08-25T16:55:40.602Z,43.29
2017-08-25T17:00:42.838Z,44.42
2017-08-25T17:05:44.808Z,44.50
2017-08-25T17:10:46.768Z,45.18
2017-08-25T17:15:48.841Z,45.44
2017-08-25T17:20:50.883Z,45.77
2017-08-25T17:25:53.106Z,46.36
2017-08-25T17:30:55.365Z,46.77
2017-08-25T17:35:57.770Z,47.29
2017-08-25T17:40:59.688Z,47.89
2017-08-25T17:46:01.639Z,47.96
2017-08-25T17:51:03.695Z,47.77
2017-08-25T17:56:07.143Z,48.72
2017-08-25T18:01:10.041Z,49.08
2017-08-25T18:06:13.890Z,49.45
2017-08-25T18:11:16.065Z,49.65
2017-08-25T18:16:19.619Z,50.20
2017-08-25T18:21:22.794Z,51.27
2017-08-25T18:26:25.070Z,52.20
2017-08-25T18:31:27.291Z,52.58
2017-08-25T18:36:29.469Z,52.78
2017-08-25T18:41:32.126Z,53.12
2017-08-25T18:46:34.404Z,53.05
2017-08-25T18:51:36.686Z,53.43
2017-08-25T18:56:38.895Z,54.03
2017-08-25T19:01:41.146Z,53.80
2017-08-25T19:06:43.475Z,53.65
2017-08-25T19:11:45.772Z,53.46
2017-08-25T19:16:48.001Z,53.65
2017-08-25T19:21:50.310Z,54.31
2017-08-25T19:26:52.498Z,55.23
2017-08-25T19:31:54.630Z,55.36
2017-08-25T19:36:56.826Z,55.29
2017-08-25T19:41:59.239Z,55.58
2017-08-25T19:47:03.832Z,56.62
2017-08-25T19:52:06.353Z,56.68
2017-08-25T19:57:08.753Z,57.05
2017-08-25T20:02:14.947Z,56.93
2017-08-25T20:07:20.577Z,57.95
2017-08-25T20:12:25.671Z,58.03
2017-08-25T20:17:32.332Z,58.13
2017-08-25T20:22:34.964Z,58.96
2017-08-25T20:27:38.217Z,59.13
2017-08-25T20:32:41.215Z,59.70
2017-08-25T20:37:49.186Z,59.51
2017-08-25T20:42:56.780Z,59.36
2017-08-25T20:48:00.670Z,59.33
2017-08-25T20:53:04.369Z,59.37
2017-08-25T20:58:07.787Z,59.10
2017-08-25T21:03:10.113Z,58.99
2017-08-25T21:08:16.454Z,59.26
2017-08-25T21:13:24.596Z,59.31
2017-08-25T21:18:28.308Z,59.57
2017-08-25T21:23:35.809Z,59.37
2017-08-25T21:28:42.940Z,59.39
2017-08-25T21:33:46.346Z,59.57
2017-08-25T21:38:53.674Z,59.76
2017-08-25T21:43:56.261Z,59.87
2017-08-25T21:49:00.269Z,60.25
2017-08-25T21:54:08.252Z,60.60
2017-08-25T21:59:10.337Z,61.36
2017-08-25T22:04:15.737Z,61.48
2017-08-25T22:09:19.875Z,61.47
2017-08-25T22:14:22.459Z,61.51
2017-08-25T22:19:28.831Z,61.48
2017-08-25T22:24:32.006Z,61.65
2017-08-25T22:29:38.517Z,62.13
2017-08-25T22:34:43.847Z,61.67
2017-08-25T22:39:47.617Z,62.02
2017-08-25T22:44:53.069Z,62.47
2017-08-25T22:49:57.708Z,62.76
2017-08-25T22:55:01.246Z,62.97
2017-08-25T23:00:05.851Z,62.22
2017-08-25T23:05:09.180Z,62.43
2017-08-25T23:10:17.392Z,62.64
2017-08-25T23:15:20.608Z,62.85
2017-08-25T23:20:23.719Z,63.50
2017-08-25T23:25:32.290Z,63.12
2017-08-25T23:30:34.247Z,62.75
2017-08-25T23:35:39.454Z,63.16
2017-08-25T23:40:47.392Z,62.83
2017-08-25T23:45:54.500Z,62.46
2017-08-25T23:50:56.956Z,63.44
2017-08-25T23:56:03.355Z,63.68
